createdAt,value
2018-07-30T00:02:06.145Z,60.34
2018-07-30T00:04:33.112Z,60.24
2018-07-30T00:06:59.497Z,60.34
2018-07-30T00:09:25.855Z,60.25
2018-07-30T00:11:52.228Z,60.16
2018-07-30T00:14:18.631Z,60.02
2018-07-30T00:16:44.954Z,60.15
2018-07-30T00:19:11.278Z,60.13
2018-07-30T00:21:37.655Z,60.13
2018-07-30T00:24:04.014Z,59.99
2018-07-30T00:26:30.343Z,60.01
2018-07-30T00:28:56.715Z,60.11
2018-07-30T00:31:23.113Z,59.96
2018-07-30T00:33:49.411Z,59.87
2018-07-30T00:36:15.772Z,59.83
2018-07-30T00:38:42.107Z,59.89
2018-07-30T00:41:08.511Z,59.90
2018-07-30T00:43:34.838Z,60.04
2018-07-30T00:46:01.203Z,59.93
2018-07-30T00:48:27.533Z,59.90
2018-07-30T00:50:53.899Z,59.78
2018-07-30T00:53:20.257Z,59.72
2018-07-30T00:55:46.659Z,59.84
2018-07-30T00:58:13.026Z,59.81
2018-07-30T01:00:39.354Z,59.77
2018-07-30T01:03:05.723Z,59.93
2018-07-30T01:05:32.053Z,59.65
2018-07-30T01:07:58.410Z,59.78
2018-07-30T01:10:24.787Z,59.67
2018-07-30T01:12:51.151Z,59.57
2018-07-30T01:15:17.498Z,59.73
2018-07-30T01:17:43.914Z,59.74
2018-07-30T01:20:10.245Z,59.69
2018-07-30T01:22:36.584Z,59.71
2018-07-30T01:25:02.928Z,59.80
2018-07-30T01:27:29.267Z,59.76
2018-07-30T01:29:55.632Z,59.57
2018-07-30T01:32:21.959Z,59.69
2018-07-30T01:34:48.301Z,59.70
2018-07-30T01:37:14.622Z,59.58
2018-07-30T01:39:40.974Z,59.59
2018-07-30T01:42:07.273Z,59.78
2018-07-30T01:44:33.581Z,59.76
2018-07-30T01:46:59.940Z,59.69
2018-07-30T01:49:26.295Z,59.77
2018-07-30T01:51:52.616Z,59.61
2018-07-30T01:54:19.008Z,59.60
2018-07-30T01:56:45.330Z,59.55
2018-07-30T01:59:11.668Z,59.60
2018-07-30T02:01:38.027Z,59.71
2018-07-30T02:04:04.453Z,59.56
2018-07-30T02:06:30.779Z,59.54
2018-07-30T02:08:57.106Z,59.64
2018-07-30T02:11:23.478Z,59.57
2018-07-30T02:13:49.790Z,59.48
2018-07-30T02:16:16.135Z,59.69
2018-07-30T02:18:42.468Z,59.67
2018-07-30T02:21:08.832Z,59.52
2018-07-30T02:23:35.192Z,59.57
2018-07-30T02:26:01.501Z,59.59
2018-07-30T02:28:27.865Z,59.61
2018-07-30T02:30:54.194Z,59.57
2018-07-30T02:33:20.563Z,59.47
2018-07-30T02:35:46.894Z,59.61
2018-07-30T02:38:13.248Z,59.68
2018-07-30T02:40:39.653Z,59.55
2018-07-30T02:43:05.991Z,59.52
2018-07-30T02:45:32.319Z,59.59
2018-07-30T02:47:58.640Z,59.59
2018-07-30T02:50:24.975Z,59.54
2018-07-30T02:52:51.335Z,59.68
2018-07-30T02:55:17.662Z,59.68
2018-07-30T02:57:44.022Z,59.73
2018-07-30T03:00:10.394Z,59.63
2018-07-30T03:02:36.721Z,59.55
2018-07-30T03:05:03.084Z,59.69
2018-07-30T03:07:29.390Z,59.60
2018-07-30T03:09:55.723Z,59.45
2018-07-30T03:12:22.088Z,59.60
2018-07-30T03:14:48.416Z,59.37
2018-07-30T03:17:15.252Z,59.22
2018-07-30T03:19:41.585Z,59.11
2018-07-30T03:22:07.938Z,59.03
2018-07-30T03:24:34.263Z,58.80
2018-07-30T03:27:00.627Z,58.70
2018-07-30T03:29:26.999Z,58.80
2018-07-30T03:31:53.358Z,59.04
2018-07-30T03:34:19.818Z,58.70
2018-07-30T03:36:46.143Z,58.66
2018-07-30T03:39:12.496Z,58.46
2018-07-30T03:41:38.894Z,58.38
2018-07-30T03:44:05.227Z,58.38
2018-07-30T03:46:31.558Z,58.37
2018-07-30T03:48:57.895Z,58.45
2018-07-30T03:51:24.253Z,58.47
2018-07-30T03:53:50.595Z,58.41
2018-07-30T03:56:16.933Z,58.41
2018-07-30T03:58:43.259Z,58.35
2018-07-30T04:01:09.626Z,58.46
2018-07-30T04:03:35.955Z,58.42
2018-07-30T04:06:02.343Z,58.46
2018-07-30T04:08:28.683Z,58.37
2018-07-30T04:10:55.084Z,58.46
2018-07-30T04:13:21.450Z,58.42
2018-07-30T04:15:47.779Z,58.64
2018-07-30T04:18:14.149Z,58.56
2018-07-30T04:20:40.465Z,58.58
2018-07-30T04:23:06.779Z,58.74
2018-07-30T04:25:33.162Z,58.68
2018-07-30T04:27:59.496Z,58.60
2018-07-30T04:30:25.854Z,58.64
2018-07-30T04:32:52.807Z,58.70
2018-07-30T04:35:19.159Z,58.68
2018-07-30T04:37:45.495Z,58.88
2018-07-30T04:40:11.813Z,58.94
2018-07-30T04:42:38.141Z,58.86
2018-07-30T04:45:04.522Z,58.85
2018-07-30T04:47:30.924Z,58.82
2018-07-30T04:49:57.259Z,58.84
2018-07-30T04:52:23.588Z,58.84
2018-07-30T04:54:49.983Z,59.08
2018-07-30T04:57:16.370Z,59.02
2018-07-30T04:59:42.834Z,59.19
2018-07-30T05:02:09.178Z,58.94
2018-07-30T05:04:35.537Z,59.08
2018-07-30T05:07:01.917Z,59.14
2018-07-30T05:09:28.287Z,59.09
2018-07-30T05:11:54.631Z,59.27
2018-07-30T05:14:21.014Z,59.03
2018-07-30T05:16:47.370Z,59.19
2018-07-30T05:19:13.766Z,59.09
2018-07-30T05:21:40.145Z,59.25
2018-07-30T05:24:06.503Z,59.36
2018-07-30T05:26:32.891Z,59.41
2018-07-30T05:28:59.287Z,59.09
2018-07-30T05:31:25.718Z,59.24
2018-07-30T05:33:52.168Z,58.87
2018-07-30T05:36:18.609Z,58.76
2018-07-30T05:38:44.994Z,58.99
2018-07-30T05:41:11.341Z,58.80
2018-07-30T05:43:37.691Z,58.83
2018-07-30T05:46:04.110Z,58.85
2018-07-30T05:48:30.456Z,58.74
2018-07-30T05:50:56.875Z,58.97
2018-07-30T05:53:23.247Z,58.90
2018-07-30T05:55:49.621Z,58.90
2018-07-30T05:58:15.983Z,58.75
2018-07-30T06:00:42.323Z,58.80
2018-07-30T06:03:08.652Z,58.66
2018-07-30T06:05:35.091Z,58.83
2018-07-30T06:08:01.437Z,58.68
2018-07-30T06:10:27.811Z,58.74
2018-07-30T06:12:54.204Z,58.71
2018-07-30T06:15:20.534Z,58.67
2018-07-30T06:17:46.901Z,58.60
2018-07-30T06:20:13.264Z,58.66
2018-07-30T06:22:40.363Z,58.66
2018-07-30T06:25:06.751Z,58.55
2018-07-30T06:27:33.144Z,58.37
2018-07-30T06:29:59.504Z,58.50
2018-07-30T06:32:25.827Z,58.29
2018-07-30T06:34:52.203Z,58.36
2018-07-30T06:37:18.615Z,58.29
2018-07-30T06:39:44.951Z,58.53
2018-07-30T06:42:11.310Z,58.16
2018-07-30T06:44:37.751Z,58.32
2018-07-30T06:47:04.167Z,58.49
2018-07-30T06:49:30.588Z,58.16
2018-07-30T06:51:56.939Z,57.94
2018-07-30T06:54:23.310Z,58.11
2018-07-30T06:56:49.741Z,58.45
2018-07-30T06:59:16.107Z,58.44
2018-07-30T07:01:42.473Z,58.32
2018-07-30T07:04:08.879Z,58.27
2018-07-30T07:06:35.237Z,58.23
2018-07-30T07:09:01.599Z,58.33
2018-07-30T07:11:27.958Z,58.06
2018-07-30T07:13:54.338Z,58.45
2018-07-30T07:16:20.712Z,58.31
2018-07-30T07:18:47.109Z,58.31
2018-07-30T07:21:13.486Z,57.96
2018-07-30T07:23:39.894Z,57.70
2018-07-30T07:26:06.277Z,58.00
2018-07-30T07:28:32.608Z,57.63
2018-07-30T07:30:59.552Z,57.96
2018-07-30T07:33:26.003Z,57.84
2018-07-30T07:35:52.395Z,57.86
2018-07-30T07:38:18.751Z,58.14
2018-07-30T07:40:45.083Z,57.83
2018-07-30T07:43:11.454Z,58.04
2018-07-30T07:45:37.846Z,57.86
2018-07-30T07:48:04.310Z,58.05
2018-07-30T07:50:30.791Z,58.11
2018-07-30T07:52:57.079Z,57.97
2018-07-30T07:55:23.439Z,58.07
2018-07-30T07:57:49.870Z,57.93
2018-07-30T08:00:16.249Z,57.99
2018-07-30T08:02:42.657Z,57.92
2018-07-30T08:05:09.114Z,57.73
2018-07-30T08:07:35.422Z,57.64
2018-07-30T08:10:01.754Z,57.85
2018-07-30T08:12:28.169Z,57.96
2018-07-30T08:14:54.569Z,58.01
2018-07-30T08:17:20.910Z,57.80
2018-07-30T08:19:47.291Z,57.60
2018-07-30T08:22:13.750Z,57.57
2018-07-30T08:24:40.056Z,57.73
2018-07-30T08:27:06.387Z,58.03
2018-07-30T08:29:32.754Z,57.98
2018-07-30T08:31:59.092Z,57.56
2018-07-30T08:34:25.450Z,57.64
2018-07-30T08:36:51.854Z,57.70
2018-07-30T08:39:18.212Z,57.32
2018-07-30T08:41:44.672Z,57.55
2018-07-30T08:44:10.991Z,57.80
2018-07-30T08:46:37.360Z,57.68
2018-07-30T08:49:03.711Z,57.49
2018-07-30T08:51:30.032Z,57.68
2018-07-30T08:53:56.403Z,57.52
2018-07-30T08:56:22.841Z,57.55
2018-07-30T08:58:49.232Z,57.37
2018-07-30T09:01:15.621Z,57.69
2018-07-30T09:03:42.038Z,57.86
2018-07-30T09:06:08.399Z,57.78
2018-07-30T09:08:34.807Z,57.76
2018-07-30T09:11:01.190Z,57.83
2018-07-30T09:13:27.556Z,57.63
2018-07-30T09:15:53.954Z,57.79
2018-07-30T09:18:20.278Z,57.90
2018-07-30T09:20:46.702Z,57.64
2018-07-30T09:23:13.040Z,57.96
2018-07-30T09:25:39.379Z,57.99
2018-07-30T09:28:05.721Z,57.71
2018-07-30T09:30:32.128Z,58.14
2018-07-30T09:32:58.643Z,58.10
2018-07-30T09:35:24.888Z,58.03
2018-07-30T09:37:51.244Z,58.29
2018-07-30T09:40:17.622Z,58.29
2018-07-30T09:42:44.043Z,58.35
2018-07-30T09:45:10.393Z,58.64
2018-07-30T09:47:36.765Z,58.72
2018-07-30T09:50:03.161Z,58.72
2018-07-30T09:52:29.591Z,58.82
2018-07-30T09:54:55.961Z,58.13
2018-07-30T09:57:22.319Z,58.47
2018-07-30T09:59:48.695Z,58.29
2018-07-30T10:02:15.122Z,58.09
2018-07-30T10:04:41.504Z,58.31
2018-07-30T10:07:07.829Z,58.35
2018-07-30T10:09:34.228Z,58.27
2018-07-30T10:12:00.639Z,58.28
2018-07-30T10:14:27.749Z,58.64
2018-07-30T10:16:54.099Z,58.34
2018-07-30T10:19:20.468Z,58.18
2018-07-30T10:21:46.855Z,58.20
2018-07-30T10:24:13.174Z,58.00
2018-07-30T10:26:39.514Z,58.06
2018-07-30T10:29:05.901Z,58.15
2018-07-30T10:31:32.277Z,58.12
2018-07-30T10:33:58.613Z,58.54
2018-07-30T10:36:25.020Z,57.84
2018-07-30T10:38:51.342Z,57.61
2018-07-30T10:41:17.733Z,57.93
2018-07-30T10:43:44.182Z,57.71
2018-07-30T10:46:10.533Z,57.60
2018-07-30T10:48:36.949Z,57.42
2018-07-30T10:51:03.298Z,57.88
2018-07-30T10:53:29.689Z,57.57
2018-07-30T10:55:56.063Z,57.86
2018-07-30T10:58:22.458Z,57.84
2018-07-30T11:00:48.801Z,57.75
2018-07-30T11:03:15.190Z,57.74
2018-07-30T11:05:41.528Z,57.20
2018-07-30T11:08:07.893Z,57.23
2018-07-30T11:10:34.306Z,57.80
2018-07-30T11:13:00.720Z,57.67
2018-07-30T11:15:27.097Z,57.55
2018-07-30T11:17:53.522Z,57.55
2018-07-30T11:20:19.877Z,57.19
2018-07-30T11:22:46.266Z,57.69
2018-07-30T11:25:12.652Z,57.90
2018-07-30T11:27:39.109Z,55.61
2018-07-30T11:30:05.487Z,58.22
2018-07-30T11:32:32.287Z,58.01
2018-07-30T11:34:58.642Z,57.94
2018-07-30T11:37:24.985Z,58.08
2018-07-30T11:39:51.396Z,57.94
2018-07-30T11:42:17.748Z,57.90
2018-07-30T11:44:44.213Z,57.80
2018-07-30T11:47:10.563Z,57.76
2018-07-30T11:49:36.905Z,57.36
2018-07-30T11:52:03.259Z,57.55
2018-07-30T11:54:29.716Z,57.58
2018-07-30T11:56:56.075Z,57.51
2018-07-30T11:59:22.498Z,57.59
2018-07-30T12:01:48.982Z,58.18
2018-07-30T12:04:15.400Z,57.40
2018-07-30T12:06:41.806Z,58.02
2018-07-30T12:09:08.155Z,57.80
2018-07-30T12:11:35.181Z,57.08
2018-07-30T12:14:01.557Z,57.42
2018-07-30T12:16:27.917Z,57.40
2018-07-30T12:18:54.319Z,57.20
2018-07-30T12:21:20.672Z,57.79
2018-07-30T12:23:47.134Z,57.96
2018-07-30T12:26:13.727Z,57.43
2018-07-30T12:28:40.078Z,57.40
2018-07-30T12:31:06.443Z,57.57
2018-07-30T12:33:32.760Z,57.04
2018-07-30T12:35:59.124Z,57.25
2018-07-30T12:38:25.572Z,57.31
2018-07-30T12:40:51.923Z,57.35
2018-07-30T12:43:18.433Z,57.18
2018-07-30T12:45:44.785Z,56.91
2018-07-30T12:48:11.295Z,57.71
2018-07-30T12:50:37.655Z,57.57
2018-07-30T12:53:04.031Z,57.14
2018-07-30T12:55:30.357Z,57.19
2018-07-30T12:57:56.674Z,56.94
2018-07-30T13:00:23.055Z,56.95
2018-07-30T13:02:49.424Z,56.92
2018-07-30T13:05:15.823Z,56.38
2018-07-30T13:07:42.231Z,56.61
2018-07-30T13:10:08.586Z,56.52
2018-07-30T13:12:34.939Z,56.58
2018-07-30T13:15:01.305Z,56.70
2018-07-30T13:17:27.656Z,56.72
2018-07-30T13:19:54.060Z,57.04
2018-07-30T13:22:20.396Z,56.57
2018-07-30T13:24:46.718Z,56.71
2018-07-30T13:27:13.053Z,56.16
2018-07-30T13:29:39.421Z,56.57
2018-07-30T13:32:05.765Z,56.67
2018-07-30T13:34:32.109Z,56.31
2018-07-30T13:37:01.872Z,56.30
2018-07-30T13:39:28.285Z,56.32
2018-07-30T13:41:55.091Z,55.90
2018-07-30T13:44:21.483Z,56.10
2018-07-30T13:46:47.860Z,56.74
2018-07-30T13:49:14.282Z,56.21
2018-07-30T13:51:40.692Z,56.45
2018-07-30T13:54:07.192Z,56.36
2018-07-30T13:56:33.556Z,56.15
2018-07-30T13:58:59.899Z,55.93
2018-07-30T14:01:26.239Z,56.06
2018-07-30T14:03:52.615Z,56.06
2018-07-30T14:06:19.055Z,56.00
2018-07-30T14:08:45.343Z,56.07
2018-07-30T14:11:11.729Z,56.27
2018-07-30T14:13:38.104Z,55.84
2018-07-30T14:16:04.541Z,56.33
2018-07-30T14:18:30.906Z,56.39
2018-07-30T14:20:57.258Z,56.19
2018-07-30T14:23:23.610Z,56.04
2018-07-30T14:25:49.978Z,56.22
2018-07-30T14:28:16.351Z,56.07
2018-07-30T14:30:42.697Z,56.06
2018-07-30T14:33:09.109Z,55.65
2018-07-30T14:35:35.515Z,55.65
2018-07-30T14:38:01.844Z,55.92
2018-07-30T14:40:28.307Z,55.36
2018-07-30T14:42:54.767Z,55.84
2018-07-30T14:45:21.214Z,55.68
2018-07-30T14:47:47.673Z,55.55
2018-07-30T14:50:15.703Z,55.86
2018-07-30T14:52:42.640Z,55.79
2018-07-30T14:55:09.535Z,55.43
2018-07-30T14:57:35.990Z,55.97
2018-07-30T15:00:02.459Z,55.71
2018-07-30T15:02:28.838Z,55.77
2018-07-30T15:04:55.183Z,55.67
2018-07-30T15:07:21.505Z,55.45
2018-07-30T15:09:47.880Z,55.53
2018-07-30T15:12:14.259Z,55.65
2018-07-30T15:14:40.635Z,55.60
2018-07-30T15:17:06.992Z,55.75
2018-07-30T15:19:33.396Z,55.66
2018-07-30T15:21:59.880Z,55.33
2018-07-30T15:24:26.209Z,55.58
2018-07-30T15:26:52.611Z,55.88
2018-07-30T15:29:18.955Z,55.14
2018-07-30T15:31:45.286Z,55.81
2018-07-30T15:34:11.614Z,55.56
2018-07-30T15:36:37.998Z,55.39
2018-07-30T15:39:04.339Z,55.91
2018-07-30T15:41:30.660Z,55.68
2018-07-30T15:43:57.039Z,55.84
2018-07-30T15:46:23.433Z,55.74
2018-07-30T15:48:49.799Z,55.82
2018-07-30T15:51:16.128Z,55.81
2018-07-30T15:53:42.525Z,56.12
2018-07-30T15:56:08.855Z,56.36
2018-07-30T15:58:35.224Z,56.21
2018-07-30T16:01:01.601Z,56.29
2018-07-30T16:03:27.938Z,56.49
2018-07-30T16:05:54.359Z,56.25
2018-07-30T16:08:20.662Z,56.33
2018-07-30T16:10:47.006Z,56.31
2018-07-30T16:13:13.390Z,56.56
2018-07-30T16:15:39.722Z,56.66
2018-07-30T16:18:06.133Z,56.53
2018-07-30T16:20:32.505Z,56.42
2018-07-30T16:22:58.891Z,56.69
2018-07-30T16:25:25.223Z,56.68
2018-07-30T16:27:51.546Z,56.59
2018-07-30T16:30:17.871Z,56.68
2018-07-30T16:32:44.232Z,56.82
2018-07-30T16:35:10.568Z,56.68
2018-07-30T16:37:36.934Z,56.76
2018-07-30T16:40:03.269Z,56.84
2018-07-30T16:42:29.658Z,56.74
2018-07-30T16:44:55.986Z,56.79
2018-07-30T16:47:22.364Z,57.03
2018-07-30T16:49:48.731Z,57.04
2018-07-30T16:52:15.074Z,57.19
2018-07-30T16:54:41.390Z,57.22
2018-07-30T16:57:07.753Z,57.40
2018-07-30T16:59:34.091Z,57.28
2018-07-30T17:02:00.430Z,57.92
2018-07-30T17:04:26.785Z,57.88
2018-07-30T17:06:53.111Z,57.83
2018-07-30T17:09:19.470Z,57.98
2018-07-30T17:11:45.873Z,58.09
2018-07-30T17:14:12.230Z,58.23
2018-07-30T17:16:38.593Z,57.93
2018-07-30T17:19:04.954Z,58.36
2018-07-30T17:21:31.332Z,58.34
2018-07-30T17:23:57.666Z,58.18
2018-07-30T17:26:23.991Z,58.48
2018-07-30T17:28:50.328Z,58.72
2018-07-30T17:31:16.679Z,58.47
2018-07-30T17:33:43.039Z,58.77
2018-07-30T17:36:09.432Z,58.83
2018-07-30T17:38:35.799Z,59.10
2018-07-30T17:41:02.130Z,58.88
2018-07-30T17:43:28.536Z,58.95
2018-07-30T17:45:54.876Z,59.09
2018-07-30T17:48:21.200Z,59.03
2018-07-30T17:50:47.559Z,58.99
2018-07-30T17:53:13.991Z,59.24
2018-07-30T17:55:40.311Z,58.99
2018-07-30T17:58:06.658Z,59.02
2018-07-30T18:00:33.037Z,59.41
2018-07-30T18:02:59.438Z,59.22
2018-07-30T18:05:25.883Z,59.11
2018-07-30T18:07:52.381Z,59.50
2018-07-30T18:10:18.843Z,59.41
2018-07-30T18:12:45.452Z,59.26
2018-07-30T18:15:11.907Z,59.55
2018-07-30T18:17:38.398Z,59.48
2018-07-30T18:20:04.882Z,59.52
2018-07-30T18:22:31.365Z,59.59
2018-07-30T18:24:58.052Z,59.83
2018-07-30T18:27:24.515Z,59.83
2018-07-30T18:29:51.132Z,59.77
2018-07-30T18:32:17.460Z,59.88
2018-07-30T18:34:43.782Z,59.96
2018-07-30T18:37:10.155Z,59.83
2018-07-30T18:39:36.513Z,59.77
2018-07-30T18:42:02.865Z,59.81
2018-07-30T18:44:29.292Z,59.83
2018-07-30T18:46:55.656Z,60.01
2018-07-30T18:49:21.987Z,60.12
2018-07-30T18:51:48.314Z,59.99
2018-07-30T18:54:14.646Z,59.81
2018-07-30T18:56:41.023Z,59.89
2018-07-30T18:59:07.330Z,59.89
2018-07-30T19:01:33.738Z,59.86
2018-07-30T19:04:00.070Z,59.83
2018-07-30T19:06:26.392Z,59.93
2018-07-30T19:08:52.774Z,60.03
2018-07-30T19:11:19.118Z,59.98
2018-07-30T19:13:45.524Z,59.85
2018-07-30T19:16:11.877Z,60.02
2018-07-30T19:18:38.759Z,60.06
2018-07-30T19:21:05.086Z,59.93
2018-07-30T19:23:31.432Z,59.87
2018-07-30T19:25:57.810Z,59.99
2018-07-30T19:28:24.165Z,60.06
2018-07-30T19:30:50.550Z,59.93
2018-07-30T19:33:16.928Z,59.93
2018-07-30T19:35:43.317Z,60.25
2018-07-30T19:38:09.652Z,60.02
2018-07-30T19:40:36.035Z,59.99
2018-07-30T19:43:02.432Z,60.11
2018-07-30T19:45:28.714Z,60.03
2018-07-30T19:47:55.083Z,59.94
2018-07-30T19:50:21.403Z,60.12
2018-07-30T19:52:48.443Z,60.06
2018-07-30T19:55:14.842Z,60.09
2018-07-30T19:57:41.257Z,59.88
2018-07-30T20:00:07.553Z,60.28
2018-07-30T20:02:33.876Z,60.16
2018-07-30T20:05:00.254Z,59.90
2018-07-30T20:07:26.624Z,60.07
2018-07-30T20:09:52.944Z,60.05
2018-07-30T20:12:19.388Z,60.10
2018-07-30T20:14:45.672Z,59.91
2018-07-30T20:17:12.042Z,60.09
2018-07-30T20:19:38.370Z,60.14
2018-07-30T20:22:04.767Z,60.01
2018-07-30T20:24:31.261Z,59.91
2018-07-30T20:26:57.509Z,60.12
2018-07-30T20:29:23.846Z,60.10
2018-07-30T20:31:50.234Z,60.10
2018-07-30T20:34:16.622Z,59.81
2018-07-30T20:36:42.960Z,59.84
2018-07-30T20:39:09.360Z,59.66
2018-07-30T20:41:35.740Z,59.63
2018-07-30T20:44:02.092Z,59.65
2018-07-30T20:46:28.457Z,59.72
2018-07-30T20:48:54.835Z,59.94
2018-07-30T20:51:21.186Z,59.80
2018-07-30T20:53:47.933Z,59.75
2018-07-30T20:56:15.243Z,60.02
2018-07-30T20:58:42.176Z,60.03
2018-07-30T21:01:08.652Z,59.96
2018-07-30T21:03:35.006Z,59.86
2018-07-30T21:06:01.367Z,59.90
2018-07-30T21:08:27.761Z,59.74
2018-07-30T21:10:54.110Z,59.94
2018-07-30T21:13:20.484Z,59.77
2018-07-30T21:15:46.856Z,59.96
2018-07-30T21:18:13.190Z,59.95
2018-07-30T21:20:39.559Z,59.85
2018-07-30T21:23:05.889Z,59.85
2018-07-30T21:25:32.250Z,59.93
2018-07-30T21:27:58.571Z,59.84
2018-07-30T21:30:24.947Z,59.80
2018-07-30T21:32:51.302Z,59.82
2018-07-30T21:35:17.711Z,59.66
2018-07-30T21:37:44.121Z,59.70
2018-07-30T21:40:10.516Z,59.72
2018-07-30T21:42:36.867Z,59.90
2018-07-30T21:45:03.227Z,59.95
2018-07-30T21:47:29.580Z,59.68
2018-07-30T21:49:56.010Z,59.80
2018-07-30T21:52:22.379Z,59.77
2018-07-30T21:54:48.770Z,59.73
2018-07-30T21:57:15.106Z,59.73
2018-07-30T21:59:41.456Z,59.67
2018-07-30T22:02:07.785Z,59.76
2018-07-30T22:04:34.211Z,59.77
2018-07-30T22:07:00.555Z,59.51
2018-07-30T22:09:26.911Z,59.57
2018-07-30T22:11:53.301Z,59.52
2018-07-30T22:14:19.648Z,59.55
2018-07-30T22:16:46.044Z,59.54
2018-07-30T22:19:12.432Z,59.54
2018-07-30T22:21:38.829Z,59.49
2018-07-30T22:24:05.198Z,59.54
2018-07-30T22:26:31.593Z,59.52
2018-07-30T22:28:58.004Z,59.54
2018-07-30T22:31:24.358Z,59.62
2018-07-30T22:33:50.751Z,59.43
2018-07-30T22:36:17.098Z,59.35
2018-07-30T22:38:43.508Z,59.48
2018-07-30T22:41:09.891Z,59.47
2018-07-30T22:43:36.265Z,59.43
2018-07-30T22:46:02.658Z,59.51
2018-07-30T22:48:29.018Z,59.52
2018-07-30T22:50:55.368Z,59.42
2018-07-30T22:53:21.755Z,59.48
2018-07-30T22:55:48.111Z,59.43
2018-07-30T22:58:14.515Z,59.40
2018-07-30T23:00:40.999Z,59.41
2018-07-30T23:03:07.372Z,59.67
2018-07-30T23:05:33.730Z,59.54
2018-07-30T23:08:00.114Z,59.36
2018-07-30T23:10:26.471Z,59.43
2018-07-30T23:12:52.891Z,59.36
2018-07-30T23:15:19.249Z,59.36
2018-07-30T23:17:45.618Z,59.38
2018-07-30T23:20:11.981Z,59.44
2018-07-30T23:22:38.435Z,59.28
2018-07-30T23:25:04.787Z,59.42
2018-07-30T23:27:31.146Z,59.32
2018-07-30T23:29:57.509Z,59.39
2018-07-30T23:32:23.884Z,59.38
2018-07-30T23:34:50.239Z,59.33
2018-07-30T23:37:16.705Z,59.32
2018-07-30T23:39:43.031Z,59.20
2018-07-30T23:42:09.425Z,59.27
2018-07-30T23:44:35.749Z,59.30
2018-07-30T23:47:02.099Z,59.32
2018-07-30T23:49:28.502Z,59.14
2018-07-30T23:51:54.935Z,59.18
2018-07-30T23:54:21.373Z,59.14
2018-07-30T23:56:47.758Z,59.13
2018-07-30T23:59:14.121Z,59.09
